createdAt,value
2022-07-27T00:02:42.362Z,22.34
2022-07-27T00:08:04.173Z,22.36
2022-07-27T00:13:26.397Z,22.16
2022-07-27T00:18:48.181Z,22.01
2022-07-27T00:24:09.934Z,21.80
2022-07-27T00:29:31.652Z,21.57
2022-07-27T00:34:53.369Z,21.53
2022-07-27T00:40:15.276Z,21.52
2022-07-27T00:45:37.198Z,21.55
2022-07-27T00:50:59.179Z,21.47
2022-07-27T00:56:22.267Z,21.68
2022-07-27T01:01:44.148Z,21.68
2022-07-27T01:07:06.876Z,21.77
2022-07-27T01:12:31.416Z,21.78
2022-07-27T01:17:53.223Z,21.73
2022-07-27T01:23:14.953Z,21.75
2022-07-27T01:28:36.720Z,21.50
2022-07-27T01:33:58.560Z,21.26
2022-07-27T01:39:20.389Z,21.23
2022-07-27T01:44:42.132Z,21.21
2022-07-27T01:50:05.079Z,21.17
2022-07-27T01:55:26.856Z,21.16
2022-07-27T02:00:52.997Z,20.97
2022-07-27T02:06:14.730Z,21.06
2022-07-27T02:11:55.071Z,21.03
2022-07-27T02:17:16.860Z,20.99
2022-07-27T02:22:40.807Z,20.89
2022-07-27T02:28:02.567Z,20.93
2022-07-27T02:33:24.400Z,20.77
2022-07-27T02:38:46.236Z,20.80
2022-07-27T02:44:07.982Z,20.78
2022-07-27T02:49:29.742Z,20.96
2022-07-27T02:54:51.514Z,20.91
2022-07-27T03:00:14.919Z,20.86
2022-07-27T03:05:36.802Z,20.78
2022-07-27T03:10:58.533Z,20.73
2022-07-27T03:16:20.339Z,20.57
2022-07-27T03:21:42.128Z,20.43
2022-07-27T03:27:03.962Z,20.38
2022-07-27T03:32:25.737Z,20.35
2022-07-27T03:37:47.468Z,20.16
2022-07-27T03:43:09.284Z,20.30
2022-07-27T03:48:31.064Z,20.41
2022-07-27T03:53:52.813Z,20.24
2022-07-27T03:59:15.269Z,20.26
2022-07-27T04:04:37.244Z,20.37
2022-07-27T04:09:59.173Z,20.30
2022-07-27T04:15:21.486Z,19.87
2022-07-27T04:20:43.234Z,19.84
2022-07-27T04:26:05.041Z,19.65
2022-07-27T04:31:26.819Z,19.79
2022-07-27T04:36:50.128Z,19.64
2022-07-27T04:42:11.865Z,19.56
2022-07-27T04:47:33.676Z,19.58
2022-07-27T04:52:55.416Z,19.58
2022-07-27T04:58:17.199Z,19.63
2022-07-27T05:03:40.230Z,19.68
2022-07-27T05:09:02.044Z,19.66
2022-07-27T05:14:23.809Z,19.75
2022-07-27T05:19:45.677Z,19.79
2022-07-27T05:25:08.361Z,19.77
2022-07-27T05:30:30.201Z,19.72
2022-07-27T05:35:52.048Z,19.82
2022-07-27T05:41:13.904Z,19.94
2022-07-27T05:46:36.482Z,20.00
2022-07-27T05:51:58.308Z,20.04
2022-07-27T05:57:20.046Z,20.08
2022-07-27T06:02:41.940Z,20.10
2022-07-27T06:08:08.618Z,20.07
2022-07-27T06:13:31.571Z,20.08
2022-07-27T06:18:53.346Z,19.90
2022-07-27T06:24:15.161Z,19.84
2022-07-27T06:29:36.944Z,19.93
2022-07-27T06:35:00.171Z,20.22
2022-07-27T06:40:22.194Z,20.32
2022-07-27T06:45:43.901Z,20.29
2022-07-27T06:51:06.044Z,20.37
2022-07-27T06:56:27.926Z,20.34
2022-07-27T07:01:49.613Z,20.43
2022-07-27T07:07:11.479Z,20.41
2022-07-27T07:12:33.233Z,20.48
2022-07-27T07:17:55.195Z,20.56
2022-07-27T07:23:23.045Z,20.62
2022-07-27T07:28:44.828Z,20.59
2022-07-27T07:34:06.826Z,20.70
2022-07-27T07:39:31.386Z,20.79
2022-07-27T07:44:53.485Z,20.81
2022-07-27T07:50:15.943Z,20.81
2022-07-27T07:55:37.737Z,20.55
2022-07-27T08:00:59.637Z,20.74
2022-07-27T08:06:21.570Z,20.81
2022-07-27T08:11:44.317Z,20.80
2022-07-27T08:17:06.100Z,20.88
2022-07-27T08:22:28.265Z,20.99
2022-07-27T08:27:50.019Z,20.95
2022-07-27T08:33:12.059Z,21.07
2022-07-27T08:38:33.886Z,21.08
2022-07-27T08:43:59.374Z,21.11
2022-07-27T08:49:21.233Z,21.13
2022-07-27T08:54:43.070Z,21.31
2022-07-27T09:00:06.574Z,21.53
2022-07-27T09:05:37.217Z,21.60
2022-07-27T09:11:00.356Z,21.57
2022-07-27T09:17:03.154Z,21.81
2022-07-27T09:22:11.615Z,21.84
2022-07-27T09:27:33.360Z,22.00
2022-07-27T09:32:56.661Z,21.99
2022-07-27T09:38:23.415Z,21.87
2022-07-27T09:49:35.447Z,22.02
2022-07-27T09:55:05.709Z,22.08
2022-07-27T10:00:27.534Z,21.94
2022-07-27T10:05:49.313Z,22.07
2022-07-27T10:11:11.849Z,22.10
2022-07-27T10:16:34.921Z,22.16
2022-07-27T10:21:56.700Z,22.29
2022-07-27T10:27:28.057Z,22.44
2022-07-27T10:32:49.911Z,22.47
2022-07-27T10:38:15.562Z,22.44
2022-07-27T10:43:37.317Z,22.61
2022-07-27T10:49:20.024Z,22.72
2022-07-27T10:54:41.853Z,22.89
2022-07-27T11:00:12.461Z,23.08
2022-07-27T11:06:00.029Z,23.19
2022-07-27T11:11:25.447Z,23.37
2022-07-27T11:16:55.250Z,23.35
2022-07-27T11:28:28.245Z,23.06
2022-07-27T11:33:58.349Z,23.18
2022-07-27T11:39:59.080Z,23.28
2022-07-27T11:45:08.150Z,23.34
2022-07-27T11:50:30.069Z,23.55
2022-07-27T11:55:52.402Z,23.76
2022-07-27T12:01:27.063Z,23.84
2022-07-27T12:07:05.835Z,23.65
2022-07-27T12:12:29.219Z,23.56
2022-07-27T12:17:59.825Z,23.49
2022-07-27T12:23:29.779Z,23.62
2022-07-27T12:29:07.460Z,23.64
2022-07-27T12:34:34.100Z,23.71
2022-07-27T12:39:56.072Z,23.74
2022-07-27T12:45:19.554Z,23.66
2022-07-27T12:50:43.367Z,23.68
2022-07-27T12:56:07.826Z,23.77
2022-07-27T13:01:30.084Z,23.76
2022-07-27T13:06:51.886Z,23.92
2022-07-27T13:12:13.754Z,24.05
2022-07-27T13:17:36.023Z,24.09
2022-07-27T13:22:57.788Z,24.07
2022-07-27T13:28:19.829Z,23.93
2022-07-27T13:33:41.693Z,24.10
2022-07-27T13:39:03.523Z,24.23
2022-07-27T13:44:58.326Z,24.42
2022-07-27T13:50:15.176Z,24.51
2022-07-27T13:55:39.683Z,24.53
2022-07-27T14:01:05.525Z,24.39
2022-07-27T14:06:29.301Z,24.60
2022-07-27T14:11:52.871Z,24.67
2022-07-27T14:17:14.944Z,24.62
2022-07-27T14:22:36.723Z,24.72
2022-07-27T14:28:00.178Z,24.91
2022-07-27T14:33:22.455Z,24.93
2022-07-27T14:38:44.353Z,24.75
2022-07-27T14:44:07.403Z,24.61
2022-07-27T14:49:29.237Z,24.70
2022-07-27T14:54:51.131Z,24.83
2022-07-27T15:00:14.444Z,24.74
2022-07-27T15:05:50.141Z,24.76
2022-07-27T15:11:12.775Z,24.77
2022-07-27T15:16:35.023Z,24.73
2022-07-27T15:21:56.819Z,24.64
2022-07-27T15:27:19.659Z,24.75
2022-07-27T15:32:41.429Z,24.74
2022-07-27T15:38:03.783Z,24.69
2022-07-27T15:43:25.694Z,24.75
2022-07-27T15:48:47.664Z,24.69
2022-07-27T15:54:09.460Z,24.74
2022-07-27T15:59:31.179Z,24.72
2022-07-27T16:04:54.357Z,24.74
2022-07-27T16:10:16.079Z,24.69
2022-07-27T16:15:56.751Z,24.53
2022-07-27T16:21:19.547Z,24.44
2022-07-27T16:26:41.428Z,24.53
2022-07-27T16:32:04.762Z,24.52
2022-07-27T16:37:26.589Z,24.56
2022-07-27T16:42:48.376Z,24.53
2022-07-27T16:48:12.216Z,24.46
2022-07-27T16:53:34.088Z,24.36
2022-07-27T16:58:55.972Z,24.32
2022-07-27T17:04:18.483Z,24.29
2022-07-27T17:09:40.818Z,24.27
2022-07-27T17:15:02.679Z,24.29
2022-07-27T17:20:33.140Z,24.30
2022-07-27T17:25:57.392Z,24.27
2022-07-27T17:31:21.102Z,24.23
2022-07-27T17:36:43.063Z,24.22
2022-07-27T17:42:05.470Z,24.21
2022-07-27T17:47:27.285Z,24.17
2022-07-27T17:52:49.231Z,24.20
2022-07-27T17:58:11.007Z,24.10
2022-07-27T18:03:33.029Z,23.95
2022-07-27T18:08:55.305Z,23.90
2022-07-27T18:14:17.159Z,23.86
2022-07-27T18:19:39.042Z,23.85
2022-07-27T18:25:00.978Z,23.80
2022-07-27T18:30:23.019Z,23.81
2022-07-27T18:35:46.537Z,23.74
2022-07-27T18:41:08.324Z,23.73
2022-07-27T18:46:30.233Z,23.70
2022-07-27T18:51:52.626Z,23.64
2022-07-27T18:57:14.441Z,23.55
2022-07-27T19:02:39.342Z,23.53
2022-07-27T19:08:02.533Z,23.52
2022-07-27T19:13:24.387Z,23.50
2022-07-27T19:18:46.262Z,23.44
2022-07-27T19:24:08.990Z,23.35
2022-07-27T19:29:31.520Z,23.35
2022-07-27T19:34:53.418Z,23.39
2022-07-27T19:40:42.918Z,23.32
2022-07-27T19:45:57.144Z,23.32
2022-07-27T19:51:18.976Z,23.28
2022-07-27T19:56:40.808Z,23.19
2022-07-27T20:02:02.738Z,23.18
2022-07-27T20:07:24.621Z,23.13
2022-07-27T20:12:46.429Z,23.06
2022-07-27T20:18:08.231Z,23.05
2022-07-27T20:23:30.044Z,22.94
2022-07-27T20:28:52.073Z,22.91
2022-07-27T20:34:13.881Z,22.86
2022-07-27T20:39:35.707Z,22.80
2022-07-27T20:44:58.520Z,22.69
2022-07-27T20:50:20.273Z,22.60
2022-07-27T20:55:43.256Z,22.59
2022-07-27T21:01:05.274Z,22.45
2022-07-27T21:06:27.103Z,22.41
2022-07-27T21:11:49.393Z,22.28
2022-07-27T21:17:11.220Z,22.25
2022-07-27T21:22:35.233Z,22.33
2022-07-27T21:27:56.931Z,22.18
2022-07-27T21:33:30.078Z,22.23
2022-07-27T21:38:51.917Z,22.23
2022-07-27T21:44:15.661Z,22.17
2022-07-27T21:49:39.136Z,22.06
2022-07-27T21:55:01.006Z,22.10
2022-07-27T22:00:24.581Z,22.01
2022-07-27T22:05:46.734Z,21.97
2022-07-27T22:11:09.134Z,21.87
2022-07-27T22:16:30.896Z,21.92
2022-07-27T22:21:52.681Z,21.82
2022-07-27T22:27:14.517Z,21.74
2022-07-27T22:32:36.468Z,21.75
2022-07-27T22:37:58.230Z,21.64
2022-07-27T22:43:19.972Z,21.57
2022-07-27T22:48:41.935Z,21.57
2022-07-27T22:54:04.326Z,21.53
2022-07-27T22:59:26.543Z,21.48
2022-07-27T23:04:48.485Z,21.43
2022-07-27T23:10:30.797Z,21.44
2022-07-27T23:15:52.745Z,21.45
2022-07-27T23:21:14.532Z,21.34
2022-07-27T23:26:36.281Z,21.25
2022-07-27T23:31:58.298Z,21.22
2022-07-27T23:37:20.043Z,21.21
2022-07-27T23:42:41.786Z,21.20
2022-07-27T23:48:03.699Z,21.16
2022-07-27T23:53:25.541Z,21.15
2022-07-27T23:58:47.325Z,21.00
